MTN005 KDEN-KSGF
Flight info
| Callsign | MTN005 |
|---|---|
| Flight time | 1h 24m |
| Altitude | 39000 |
| Route | EXTAN7 SHAYK KK54C SGF |
| Aircraft | CRJ7/M-SDFGIRWY/S |
Departure
| Time | 2026-04-21 13:51 |
|---|---|
| Airport | Denver International Airport (KDEN) |
Arrival
| Time | 2026-04-21 15:16 |
|---|---|
| Airport | Springfield Branson National Airport (KSGF) |
| Time | Latitude | Longitude | Altitude | Speed | Heading |
|---|---|---|---|---|---|
| 2026-04-21 13:09 | 39.85750 | -104.66624 | 5364 ft | 0 kts | 2° |
| 2026-04-21 13:39 | 39.85738 | -104.66625 | 5363 ft | 4 kts | 2° |
| 2026-04-21 13:40 | 39.85711 | -104.66626 | 5364 ft | 4 kts | 2° |
| 2026-04-21 13:40 | 39.85684 | -104.66627 | 5363 ft | 4 kts | 2° |
| 2026-04-21 13:40 | 39.85660 | -104.66628 | 5364 ft | 1 kts | 2° |
| 2026-04-21 13:44 | 39.85674 | -104.66619 | 5364 ft | 2 kts | 63° |
| 2026-04-21 13:45 | 39.85679 | -104.66592 | 5362 ft | 5 kts | 83° |
| 2026-04-21 13:45 | 39.85680 | -104.66520 | 5364 ft | 11 kts | 88° |
| 2026-04-21 13:45 | 39.85679 | -104.66386 | 5364 ft | 17 kts | 91° |
| 2026-04-21 13:45 | 39.85708 | -104.66250 | 5362 ft | 16 kts | 31° |
| 2026-04-21 13:46 | 39.85811 | -104.66231 | 5364 ft | 15 kts | 0° |
| 2026-04-21 13:46 | 39.85913 | -104.66231 | 5364 ft | 14 kts | 0° |
| 2026-04-21 13:46 | 39.86010 | -104.66230 | 5364 ft | 14 kts | 0° |
| 2026-04-21 13:46 | 39.86104 | -104.66229 | 5364 ft | 13 kts | 1° |
| 2026-04-21 13:47 | 39.86194 | -104.66227 | 5364 ft | 13 kts | 1° |
| 2026-04-21 13:47 | 39.86281 | -104.66225 | 5364 ft | 12 kts | 1° |
| 2026-04-21 13:47 | 39.86365 | -104.66224 | 5364 ft | 12 kts | 1° |
| 2026-04-21 13:47 | 39.86445 | -104.66223 | 5364 ft | 11 kts | 0° |
| 2026-04-21 13:48 | 39.86527 | -104.66223 | 5364 ft | 13 kts | 0° |
| 2026-04-21 13:48 | 39.86629 | -104.66222 | 5363 ft | 17 kts | 0° |
| 2026-04-21 13:48 | 39.86757 | -104.66221 | 5364 ft | 20 kts | 0° |
| 2026-04-21 13:48 | 39.86907 | -104.66219 | 5364 ft | 23 kts | 1° |
| 2026-04-21 13:49 | 39.87081 | -104.66216 | 5364 ft | 27 kts | 1° |
| 2026-04-21 13:49 | 39.87277 | -104.66213 | 5362 ft | 30 kts | 0° |
| 2026-04-21 13:49 | 39.87492 | -104.66217 | 5364 ft | 32 kts | 358° |
| 2026-04-21 13:49 | 39.87707 | -104.66209 | 5364 ft | 30 kts | 11° |
| 2026-04-21 13:50 | 39.87757 | -104.66038 | 5364 ft | 21 kts | 90° |
| 2026-04-21 13:50 | 39.87757 | -104.65827 | 5364 ft | 53 kts | 91° |
| 2026-04-21 13:50 | 39.87745 | -104.65120 | 5364 ft | 103 kts | 90° |
| 2026-04-21 13:50 | 39.87733 | -104.63946 | 5362 ft | 156 kts | 90° |
| 2026-04-21 13:51 | 39.87663 | -104.62373 | 5562 ft | 178 kts | 97° |
| 2026-04-21 13:51 | 39.87580 | -104.60883 | 6532 ft | 164 kts | 94° |
| 2026-04-21 13:51 | 39.87529 | -104.59342 | 6946 ft | 172 kts | 91° |
| 2026-04-21 13:51 | 39.87344 | -104.57804 | 7427 ft | 175 kts | 119° |
| 2026-04-21 13:52 | 39.86668 | -104.56499 | 7986 ft | 174 kts | 126° |
| 2026-04-21 13:52 | 39.86026 | -104.55154 | 8518 ft | 176 kts | 119° |
| 2026-04-21 13:52 | 39.85533 | -104.53881 | 8769 ft | 198 kts | 115° |
| 2026-04-21 13:52 | 39.84966 | -104.52172 | 9324 ft | 209 kts | 113° |
| 2026-04-21 13:53 | 39.84374 | -104.50326 | 9739 ft | 235 kts | 113° |
| 2026-04-21 13:53 | 39.83729 | -104.48359 | 9919 ft | 244 kts | 114° |
| 2026-04-21 13:53 | 39.83046 | -104.46412 | 10013 ft | 270 kts | 115° |
| 2026-04-21 13:53 | 39.82205 | -104.44084 | 10070 ft | 299 kts | 115° |
| 2026-04-21 13:54 | 39.81274 | -104.41516 | 10127 ft | 327 kts | 115° |
| 2026-04-21 13:54 | 39.80536 | -104.38612 | 10192 ft | 350 kts | 94° |
| 2026-04-21 13:54 | 39.80601 | -104.35477 | 10956 ft | 348 kts | 86° |
| 2026-04-21 13:54 | 39.80725 | -104.32310 | 11566 ft | 353 kts | 89° |
| 2026-04-21 13:55 | 39.80579 | -104.29108 | 12177 ft | 357 kts | 97° |
| 2026-04-21 13:55 | 39.80216 | -104.25903 | 12788 ft | 360 kts | 99° |
| 2026-04-21 13:55 | 39.79800 | -104.22672 | 13397 ft | 364 kts | 99° |
| 2026-04-21 13:55 | 39.79389 | -104.19409 | 13984 ft | 368 kts | 99° |
| 2026-04-21 13:56 | 39.78982 | -104.16111 | 14552 ft | 371 kts | 99° |
| 2026-04-21 13:56 | 39.78594 | -104.12830 | 15122 ft | 374 kts | 98° |
| 2026-04-21 13:56 | 39.78227 | -104.09472 | 15681 ft | 377 kts | 98° |
| 2026-04-21 13:56 | 39.77864 | -104.06088 | 16227 ft | 379 kts | 98° |
| 2026-04-21 13:57 | 39.77499 | -104.02674 | 16766 ft | 382 kts | 98° |
| 2026-04-21 13:57 | 39.77132 | -103.99246 | 17293 ft | 385 kts | 98° |
| 2026-04-21 13:57 | 39.76758 | -103.95796 | 17816 ft | 387 kts | 98° |
| 2026-04-21 13:57 | 39.76379 | -103.92319 | 18330 ft | 390 kts | 98° |
| 2026-04-21 13:58 | 39.75998 | -103.88820 | 18779 ft | 392 kts | 98° |
| 2026-04-21 13:58 | 39.75580 | -103.85315 | 19224 ft | 394 kts | 99° |
| 2026-04-21 13:58 | 39.75136 | -103.81781 | 19654 ft | 397 kts | 99° |
| 2026-04-21 13:58 | 39.74688 | -103.78232 | 20078 ft | 399 kts | 99° |
| 2026-04-21 13:59 | 39.74260 | -103.74662 | 20494 ft | 401 kts | 98° |
| 2026-04-21 13:59 | 39.73906 | -103.71058 | 20894 ft | 403 kts | 96° |
| 2026-04-21 13:59 | 39.73634 | -103.67419 | 21288 ft | 406 kts | 95° |
| 2026-04-21 13:59 | 39.73369 | -103.63758 | 21670 ft | 408 kts | 95° |
| 2026-04-21 14:00 | 39.73109 | -103.60084 | 22043 ft | 410 kts | 95° |
| 2026-04-21 14:00 | 39.72846 | -103.56385 | 22413 ft | 412 kts | 95° |
| 2026-04-21 14:00 | 39.72556 | -103.52670 | 22775 ft | 414 kts | 96° |
| 2026-04-21 14:00 | 39.72257 | -103.48939 | 23132 ft | 417 kts | 96° |
| 2026-04-21 14:01 | 39.71956 | -103.45184 | 23481 ft | 419 kts | 96° |
| 2026-04-21 14:01 | 39.71669 | -103.41603 | 23751 ft | 421 kts | 96° |
| 2026-04-21 14:01 | 39.71360 | -103.37821 | 24032 ft | 423 kts | 96° |
| 2026-04-21 14:01 | 39.71054 | -103.34009 | 24303 ft | 425 kts | 96° |
| 2026-04-21 14:02 | 39.70744 | -103.30191 | 24566 ft | 427 kts | 96° |
| 2026-04-21 14:02 | 39.70428 | -103.26350 | 24828 ft | 428 kts | 96° |
| 2026-04-21 14:02 | 39.70112 | -103.22496 | 25085 ft | 430 kts | 96° |
| 2026-04-21 14:03 | 39.69479 | -103.14782 | 25578 ft | 434 kts | 95° |
| 2026-04-21 14:03 | 39.69155 | -103.10880 | 25815 ft | 436 kts | 95° |
| 2026-04-21 14:03 | 39.68933 | -103.08204 | 25971 ft | 437 kts | 95° |
| 2026-04-21 14:03 | 39.68605 | -103.04280 | 26187 ft | 439 kts | 95° |
| 2026-04-21 14:04 | 39.68270 | -103.00331 | 26409 ft | 440 kts | 95° |
| 2026-04-21 14:04 | 39.67937 | -102.96368 | 26627 ft | 442 kts | 95° |
| 2026-04-21 14:04 | 39.67598 | -102.92394 | 26838 ft | 444 kts | 95° |
| 2026-04-21 14:04 | 39.67259 | -102.88408 | 27055 ft | 445 kts | 95° |
| 2026-04-21 14:05 | 39.66919 | -102.84407 | 27264 ft | 447 kts | 95° |
| 2026-04-21 14:05 | 39.66573 | -102.80391 | 27470 ft | 448 kts | 95° |
| 2026-04-21 14:05 | 39.66227 | -102.76363 | 27666 ft | 450 kts | 95° |
| 2026-04-21 14:05 | 39.65875 | -102.72322 | 27859 ft | 451 kts | 95° |
| 2026-04-21 14:06 | 39.65522 | -102.68265 | 28045 ft | 453 kts | 95° |
| 2026-04-21 14:06 | 39.65169 | -102.64200 | 28276 ft | 453 kts | 95° |
| 2026-04-21 14:06 | 39.64813 | -102.60139 | 28508 ft | 453 kts | 95° |
| 2026-04-21 14:06 | 39.64455 | -102.56076 | 28767 ft | 453 kts | 95° |
| 2026-04-21 14:07 | 39.64097 | -102.52018 | 29003 ft | 453 kts | 95° |
| 2026-04-21 14:07 | 39.63737 | -102.47959 | 29252 ft | 452 kts | 95° |
| 2026-04-21 14:07 | 39.63377 | -102.43907 | 29482 ft | 452 kts | 95° |
| 2026-04-21 14:07 | 39.63012 | -102.39858 | 29728 ft | 451 kts | 95° |
| 2026-04-21 14:08 | 39.62649 | -102.35816 | 29939 ft | 451 kts | 95° |
| 2026-04-21 14:08 | 39.62286 | -102.31777 | 30135 ft | 451 kts | 95° |
| 2026-04-21 14:08 | 39.61920 | -102.27746 | 30323 ft | 450 kts | 95° |
| 2026-04-21 14:08 | 39.61554 | -102.23710 | 30508 ft | 449 kts | 95° |
| 2026-04-21 14:09 | 39.61186 | -102.19690 | 30708 ft | 449 kts | 95° |
| 2026-04-21 14:09 | 39.60819 | -102.15679 | 30902 ft | 448 kts | 94° |
| 2026-04-21 14:09 | 39.60451 | -102.11660 | 31092 ft | 448 kts | 94° |
| 2026-04-21 14:09 | 39.60082 | -102.07651 | 31274 ft | 447 kts | 94° |
| 2026-04-21 14:10 | 39.59710 | -102.03651 | 31470 ft | 446 kts | 94° |
| 2026-04-21 14:10 | 39.59341 | -101.99663 | 31652 ft | 446 kts | 94° |
| 2026-04-21 14:10 | 39.58976 | -101.95672 | 31834 ft | 445 kts | 94° |
| 2026-04-21 14:10 | 39.58645 | -101.91696 | 32009 ft | 444 kts | 93° |
| 2026-04-21 14:11 | 39.58329 | -101.87721 | 32181 ft | 443 kts | 93° |
| 2026-04-21 14:11 | 39.58014 | -101.83751 | 32353 ft | 442 kts | 93° |
| 2026-04-21 14:11 | 39.57700 | -101.79843 | 32519 ft | 442 kts | 93° |
| 2026-04-21 14:11 | 39.57385 | -101.75889 | 32677 ft | 441 kts | 93° |
| 2026-04-21 14:12 | 39.57065 | -101.71943 | 32843 ft | 440 kts | 93° |
| 2026-04-21 14:12 | 39.56745 | -101.68000 | 33000 ft | 440 kts | 93° |
| 2026-04-21 14:12 | 39.56429 | -101.64068 | 33150 ft | 439 kts | 93° |
| 2026-04-21 14:12 | 39.56108 | -101.60136 | 33295 ft | 438 kts | 93° |
| 2026-04-21 14:13 | 39.55784 | -101.56203 | 33426 ft | 438 kts | 92° |
| 2026-04-21 14:13 | 39.55462 | -101.52285 | 33554 ft | 437 kts | 92° |
| 2026-04-21 14:13 | 39.55137 | -101.48370 | 33677 ft | 437 kts | 92° |
| 2026-04-21 14:13 | 39.54813 | -101.44460 | 33814 ft | 436 kts | 92° |
| 2026-04-21 14:14 | 39.54463 | -101.40567 | 33939 ft | 436 kts | 94° |
| 2026-04-21 14:14 | 39.54011 | -101.36672 | 34057 ft | 436 kts | 96° |
| 2026-04-21 14:14 | 39.53455 | -101.32812 | 34165 ft | 437 kts | 98° |
| 2026-04-21 14:14 | 39.52859 | -101.28955 | 34288 ft | 436 kts | 98° |
| 2026-04-21 14:15 | 39.52263 | -101.25103 | 34449 ft | 434 kts | 97° |
| 2026-04-21 14:15 | 39.51673 | -101.21276 | 34673 ft | 430 kts | 97° |
| 2026-04-21 14:15 | 39.51113 | -101.17491 | 34859 ft | 428 kts | 97° |
| 2026-04-21 14:16 | 39.50002 | -101.09922 | 35000 ft | 429 kts | 97° |
| 2026-04-21 14:16 | 39.48881 | -101.02306 | 35024 ft | 431 kts | 97° |
| 2026-04-21 14:17 | 39.47750 | -100.94693 | 35034 ft | 431 kts | 97° |
| 2026-04-21 14:17 | 39.46608 | -100.87026 | 35011 ft | 436 kts | 97° |
| 2026-04-21 14:18 | 39.45450 | -100.79276 | 34987 ft | 441 kts | 97° |
| 2026-04-21 14:18 | 39.44280 | -100.71498 | 34956 ft | 446 kts | 97° |
| 2026-04-21 14:19 | 39.43085 | -100.63580 | 34933 ft | 451 kts | 97° |
| 2026-04-21 14:19 | 39.41870 | -100.55573 | 34911 ft | 456 kts | 97° |
| 2026-04-21 14:20 | 39.40638 | -100.47485 | 34913 ft | 460 kts | 97° |
| 2026-04-21 14:20 | 39.39388 | -100.39328 | 34916 ft | 465 kts | 97° |
| 2026-04-21 14:21 | 39.38123 | -100.31098 | 34916 ft | 469 kts | 97° |
| 2026-04-21 14:21 | 39.36861 | -100.22952 | 34928 ft | 453 kts | 97° |
| 2026-04-21 14:22 | 39.35669 | -100.15282 | 34946 ft | 443 kts | 97° |
| 2026-04-21 14:22 | 39.34457 | -100.07529 | 34966 ft | 439 kts | 97° |
| 2026-04-21 14:23 | 39.33242 | -99.99767 | 34990 ft | 442 kts | 97° |
| 2026-04-21 14:23 | 39.32009 | -99.91962 | 35012 ft | 446 kts | 97° |
| 2026-04-21 14:24 | 39.30762 | -99.84068 | 35013 ft | 451 kts | 97° |
| 2026-04-21 14:24 | 39.29491 | -99.76096 | 35011 ft | 456 kts | 98° |
| 2026-04-21 14:25 | 39.28205 | -99.68048 | 34998 ft | 460 kts | 98° |
| 2026-04-21 14:25 | 39.26902 | -99.59931 | 34984 ft | 464 kts | 98° |
| 2026-04-21 14:26 | 39.25580 | -99.51747 | 34965 ft | 468 kts | 98° |
| 2026-04-21 14:26 | 39.24244 | -99.43498 | 34950 ft | 471 kts | 98° |
| 2026-04-21 14:27 | 39.22892 | -99.35198 | 34942 ft | 474 kts | 98° |
| 2026-04-21 14:27 | 39.21525 | -99.26854 | 34940 ft | 477 kts | 98° |
| 2026-04-21 14:28 | 39.20148 | -99.18475 | 34946 ft | 479 kts | 98° |
| 2026-04-21 14:28 | 39.18759 | -99.10067 | 34950 ft | 480 kts | 98° |
| 2026-04-21 14:29 | 39.17359 | -99.01631 | 34956 ft | 482 kts | 98° |
| 2026-04-21 14:29 | 39.15962 | -98.93234 | 34965 ft | 483 kts | 99° |
| 2026-04-21 14:30 | 39.14540 | -98.84757 | 34967 ft | 484 kts | 99° |
| 2026-04-21 14:30 | 39.13113 | -98.76290 | 34977 ft | 482 kts | 99° |
| 2026-04-21 14:31 | 39.11705 | -98.67960 | 34962 ft | 470 kts | 99° |
| 2026-04-21 14:31 | 39.10326 | -98.59849 | 34959 ft | 458 kts | 99° |
| 2026-04-21 14:32 | 39.08974 | -98.51922 | 34953 ft | 448 kts | 99° |
| 2026-04-21 14:32 | 39.07646 | -98.44164 | 34938 ft | 439 kts | 99° |
| 2026-04-21 14:33 | 39.06334 | -98.36531 | 34940 ft | 436 kts | 99° |
| 2026-04-21 14:33 | 39.05020 | -98.28943 | 34957 ft | 433 kts | 99° |
| 2026-04-21 14:34 | 39.03719 | -98.21439 | 34963 ft | 431 kts | 99° |
| 2026-04-21 14:34 | 39.02411 | -98.13916 | 34977 ft | 432 kts | 99° |
| 2026-04-21 14:35 | 39.01088 | -98.06365 | 34975 ft | 434 kts | 99° |
| 2026-04-21 14:35 | 38.99575 | -97.98830 | 34993 ft | 437 kts | 104° |
| 2026-04-21 14:36 | 38.97481 | -97.91464 | 35004 ft | 441 kts | 109° |
| 2026-04-21 14:36 | 38.95122 | -97.84178 | 35024 ft | 442 kts | 110° |
| 2026-04-21 14:37 | 38.92810 | -97.76793 | 35039 ft | 450 kts | 109° |
| 2026-04-21 14:37 | 38.90471 | -97.69258 | 35055 ft | 459 kts | 109° |
| 2026-04-21 14:38 | 38.88083 | -97.61577 | 35047 ft | 467 kts | 109° |
| 2026-04-21 14:38 | 38.86061 | -97.55098 | 35063 ft | 474 kts | 109° |
| 2026-04-21 14:39 | 38.83589 | -97.47194 | 35043 ft | 481 kts | 109° |
| 2026-04-21 14:39 | 38.81076 | -97.39174 | 35037 ft | 488 kts | 109° |
| 2026-04-21 14:40 | 38.78524 | -97.31064 | 35029 ft | 493 kts | 110° |
| 2026-04-21 14:40 | 38.75951 | -97.22914 | 35019 ft | 492 kts | 110° |
| 2026-04-21 14:41 | 38.73392 | -97.14814 | 35021 ft | 489 kts | 110° |
| 2026-04-21 14:41 | 38.70838 | -97.06772 | 35022 ft | 486 kts | 110° |
| 2026-04-21 14:42 | 38.68291 | -96.98767 | 35020 ft | 485 kts | 110° |
| 2026-04-21 14:42 | 38.65738 | -96.90756 | 35033 ft | 487 kts | 110° |
| 2026-04-21 14:43 | 38.63166 | -96.82722 | 35033 ft | 489 kts | 110° |
| 2026-04-21 14:43 | 38.60601 | -96.74733 | 35041 ft | 488 kts | 110° |
| 2026-04-21 14:44 | 38.58021 | -96.66710 | 35043 ft | 487 kts | 110° |
| 2026-04-21 14:44 | 38.55441 | -96.58718 | 35049 ft | 487 kts | 111° |
| 2026-04-21 14:45 | 38.52861 | -96.50744 | 35061 ft | 483 kts | 111° |
| 2026-04-21 14:45 | 38.50297 | -96.42844 | 35075 ft | 481 kts | 111° |
| 2026-04-21 14:46 | 38.47723 | -96.34934 | 35087 ft | 485 kts | 111° |
| 2026-04-21 14:46 | 38.45121 | -96.26957 | 35093 ft | 488 kts | 111° |
| 2026-04-21 14:47 | 38.42499 | -96.18950 | 35102 ft | 491 kts | 111° |
| 2026-04-21 14:47 | 38.39862 | -96.10917 | 35102 ft | 492 kts | 111° |
| 2026-04-21 14:48 | 38.37215 | -96.02870 | 35096 ft | 492 kts | 112° |
| 2026-04-21 14:48 | 38.34559 | -95.94826 | 35097 ft | 493 kts | 112° |
| 2026-04-21 14:49 | 38.31893 | -95.86772 | 35126 ft | 494 kts | 112° |
| 2026-04-21 14:49 | 38.29219 | -95.78711 | 35129 ft | 494 kts | 112° |
| 2026-04-21 14:50 | 38.26533 | -95.70647 | 35128 ft | 495 kts | 112° |
| 2026-04-21 14:50 | 38.23858 | -95.62627 | 35129 ft | 496 kts | 113° |
| 2026-04-21 14:51 | 38.21156 | -95.54558 | 35122 ft | 496 kts | 113° |
| 2026-04-21 14:51 | 38.18446 | -95.46485 | 35115 ft | 497 kts | 113° |
| 2026-04-21 14:52 | 38.15725 | -95.38403 | 35114 ft | 497 kts | 113° |
| 2026-04-21 14:52 | 38.12999 | -95.30324 | 35114 ft | 498 kts | 113° |
| 2026-04-21 14:53 | 38.10267 | -95.22249 | 35119 ft | 496 kts | 114° |
| 2026-04-21 14:53 | 38.07561 | -95.14278 | 35119 ft | 487 kts | 114° |
| 2026-04-21 14:54 | 38.04891 | -95.06431 | 34890 ft | 485 kts | 114° |
| 2026-04-21 14:54 | 38.03543 | -95.02477 | 34381 ft | 489 kts | 114° |
| 2026-04-21 14:54 | 38.02199 | -94.98539 | 33836 ft | 483 kts | 114° |
| 2026-04-21 14:54 | 38.00870 | -94.94651 | 33260 ft | 479 kts | 114° |
| 2026-04-21 14:55 | 37.99550 | -94.90796 | 32694 ft | 476 kts | 114° |
| 2026-04-21 14:55 | 37.98232 | -94.86959 | 32138 ft | 473 kts | 114° |
| 2026-04-21 14:55 | 37.96923 | -94.83143 | 31599 ft | 471 kts | 114° |
| 2026-04-21 14:55 | 37.95617 | -94.79341 | 31008 ft | 471 kts | 114° |
| 2026-04-21 14:56 | 37.94310 | -94.75538 | 30410 ft | 470 kts | 114° |
| 2026-04-21 14:56 | 37.93002 | -94.71744 | 29742 ft | 470 kts | 114° |
| 2026-04-21 14:56 | 37.91690 | -94.67941 | 29067 ft | 470 kts | 114° |
| 2026-04-21 14:56 | 37.90400 | -94.64210 | 28412 ft | 469 kts | 114° |
| 2026-04-21 14:57 | 37.89101 | -94.60448 | 27754 ft | 458 kts | 114° |
| 2026-04-21 14:57 | 37.87848 | -94.56824 | 27110 ft | 441 kts | 114° |
| 2026-04-21 14:57 | 37.86627 | -94.53304 | 26484 ft | 435 kts | 114° |
| 2026-04-21 14:57 | 37.85416 | -94.49816 | 25868 ft | 431 kts | 114° |
| 2026-04-21 14:58 | 37.84215 | -94.46366 | 25268 ft | 427 kts | 115° |
| 2026-04-21 14:58 | 37.83023 | -94.42936 | 24682 ft | 424 kts | 115° |
| 2026-04-21 14:58 | 37.81839 | -94.39539 | 24104 ft | 421 kts | 115° |
| 2026-04-21 14:58 | 37.80665 | -94.36172 | 23504 ft | 416 kts | 115° |
| 2026-04-21 14:59 | 37.79498 | -94.32834 | 22841 ft | 414 kts | 115° |
| 2026-04-21 14:59 | 37.78338 | -94.29515 | 22187 ft | 410 kts | 115° |
| 2026-04-21 14:59 | 37.77193 | -94.26244 | 21553 ft | 406 kts | 115° |
| 2026-04-21 14:59 | 37.76053 | -94.22990 | 20932 ft | 404 kts | 115° |
| 2026-04-21 15:00 | 37.74913 | -94.19740 | 20328 ft | 401 kts | 115° |
| 2026-04-21 15:00 | 37.73802 | -94.16563 | 19718 ft | 390 kts | 115° |
| 2026-04-21 15:00 | 37.72708 | -94.13450 | 19138 ft | 388 kts | 115° |
| 2026-04-21 15:00 | 37.71611 | -94.10334 | 18567 ft | 388 kts | 115° |
| 2026-04-21 15:01 | 37.70510 | -94.07216 | 17933 ft | 387 kts | 115° |
| 2026-04-21 15:01 | 37.69434 | -94.04159 | 17286 ft | 376 kts | 115° |
| 2026-04-21 15:01 | 37.68384 | -94.01176 | 16649 ft | 367 kts | 115° |
| 2026-04-21 15:01 | 37.67354 | -93.98259 | 16028 ft | 360 kts | 114° |
| 2026-04-21 15:02 | 37.66343 | -93.95399 | 15420 ft | 353 kts | 114° |
| 2026-04-21 15:02 | 37.65351 | -93.92592 | 14847 ft | 347 kts | 114° |
| 2026-04-21 15:02 | 37.64375 | -93.89835 | 14277 ft | 342 kts | 113° |
| 2026-04-21 15:02 | 37.63416 | -93.87128 | 13789 ft | 333 kts | 113° |
| 2026-04-21 15:03 | 37.62486 | -93.84499 | 13354 ft | 324 kts | 114° |
| 2026-04-21 15:03 | 37.61580 | -93.81948 | 12961 ft | 314 kts | 114° |
| 2026-04-21 15:03 | 37.60698 | -93.79471 | 12586 ft | 306 kts | 114° |
| 2026-04-21 15:03 | 37.59840 | -93.77052 | 12198 ft | 299 kts | 114° |
| 2026-04-21 15:04 | 37.59005 | -93.74686 | 11824 ft | 293 kts | 114° |
| 2026-04-21 15:04 | 37.58188 | -93.72361 | 11465 ft | 287 kts | 115° |
| 2026-04-21 15:04 | 37.57394 | -93.70077 | 11124 ft | 281 kts | 115° |
| 2026-04-21 15:04 | 37.56633 | -93.67884 | 10811 ft | 272 kts | 115° |
| 2026-04-21 15:05 | 37.55881 | -93.65771 | 10482 ft | 263 kts | 116° |
| 2026-04-21 15:05 | 37.54413 | -93.61663 | 9775 ft | 251 kts | 117° |
| 2026-04-21 15:05 | 37.53764 | -93.59855 | 9421 ft | 247 kts | 117° |
| 2026-04-21 15:06 | 37.53064 | -93.57904 | 9056 ft | 242 kts | 117° |
| 2026-04-21 15:06 | 37.52375 | -93.55985 | 8688 ft | 239 kts | 117° |
| 2026-04-21 15:06 | 37.51697 | -93.54089 | 8311 ft | 239 kts | 118° |
| 2026-04-21 15:06 | 37.50996 | -93.52169 | 7941 ft | 243 kts | 118° |
| 2026-04-21 15:07 | 37.50295 | -93.50258 | 7623 ft | 239 kts | 118° |
| 2026-04-21 15:07 | 37.49613 | -93.48366 | 7311 ft | 236 kts | 117° |
| 2026-04-21 15:07 | 37.48941 | -93.46494 | 6977 ft | 234 kts | 117° |
| 2026-04-21 15:07 | 37.48274 | -93.44639 | 6650 ft | 232 kts | 118° |
| 2026-04-21 15:08 | 37.47613 | -93.42796 | 6291 ft | 229 kts | 118° |
| 2026-04-21 15:08 | 37.46964 | -93.40986 | 5980 ft | 225 kts | 118° |
| 2026-04-21 15:08 | 37.46346 | -93.39197 | 5579 ft | 217 kts | 116° |
| 2026-04-21 15:08 | 37.45799 | -93.37484 | 5194 ft | 206 kts | 116° |
| 2026-04-21 15:09 | 37.45281 | -93.35841 | 4781 ft | 199 kts | 116° |
| 2026-04-21 15:09 | 37.44798 | -93.34234 | 4358 ft | 194 kts | 116° |
| 2026-04-21 15:09 | 37.44348 | -93.32675 | 4050 ft | 186 kts | 116° |
| 2026-04-21 15:09 | 37.43911 | -93.31133 | 3677 ft | 192 kts | 116° |
| 2026-04-21 15:10 | 37.43406 | -93.29557 | 3329 ft | 191 kts | 130° |
| 2026-04-21 15:10 | 37.42440 | -93.28756 | 3173 ft | 152 kts | 184° |
| 2026-04-21 15:10 | 37.41437 | -93.28908 | 3105 ft | 142 kts | 198° |
| 2026-04-21 15:10 | 37.40504 | -93.29215 | 3123 ft | 136 kts | 203° |
| 2026-04-21 15:11 | 37.39613 | -93.29556 | 3198 ft | 131 kts | 204° |
| 2026-04-21 15:11 | 37.38747 | -93.29910 | 3238 ft | 131 kts | 205° |
| 2026-04-21 15:11 | 37.37893 | -93.30275 | 3225 ft | 129 kts | 205° |
| 2026-04-21 15:11 | 37.37022 | -93.30625 | 3174 ft | 131 kts | 204° |
| 2026-04-21 15:12 | 37.36176 | -93.30974 | 3189 ft | 126 kts | 207° |
| 2026-04-21 15:12 | 37.35389 | -93.31358 | 3279 ft | 121 kts | 205° |
| 2026-04-21 15:12 | 37.34558 | -93.31636 | 3308 ft | 127 kts | 202° |
| 2026-04-21 15:12 | 37.33716 | -93.32067 | 3396 ft | 132 kts | 214° |
| 2026-04-21 15:13 | 37.32985 | -93.32664 | 3486 ft | 120 kts | 218° |
| 2026-04-21 15:13 | 37.32292 | -93.33340 | 3492 ft | 132 kts | 222° |
| 2026-04-21 15:13 | 37.31556 | -93.34057 | 3083 ft | 134 kts | 219° |
| 2026-04-21 15:13 | 37.30852 | -93.34664 | 2769 ft | 113 kts | 217° |
| 2026-04-21 15:14 | 37.30189 | -93.35231 | 2488 ft | 117 kts | 217° |
| 2026-04-21 15:14 | 37.29526 | -93.35826 | 2233 ft | 117 kts | 216° |
| 2026-04-21 15:14 | 37.28795 | -93.36340 | 2073 ft | 132 kts | 206° |
| 2026-04-21 15:14 | 37.27894 | -93.36818 | 1875 ft | 144 kts | 200° |
| 2026-04-21 15:15 | 37.27021 | -93.37219 | 1699 ft | 127 kts | 199° |
| 2026-04-21 15:15 | 37.26189 | -93.37631 | 1542 ft | 126 kts | 204° |
| 2026-04-21 15:15 | 37.25384 | -93.38015 | 1361 ft | 118 kts | 202° |
| 2026-04-21 15:15 | 37.24660 | -93.38383 | 1271 ft | 85 kts | 202° |
| 2026-04-21 15:16 | 37.24397 | -93.38513 | 1274 ft | 28 kts | 199° |
| 2026-04-21 15:16 | 37.24302 | -93.38607 | 1277 ft | 0 kts | 261° |
| 2026-04-21 15:16 | 37.24302 | -93.38608 | 1277 ft | 0 kts | 263° |
| 2026-04-21 15:17 | 37.24303 | -93.38625 | 1275 ft | 5 kts | 285° |
| 2026-04-21 15:17 | 37.24313 | -93.38674 | 1274 ft | 6 kts | 272° |
| 2026-04-21 15:17 | 37.24289 | -93.38728 | 1276 ft | 8 kts | 218° |
| 2026-04-21 15:17 | 37.24251 | -93.38765 | 1278 ft | 7 kts | 216° |
| 2026-04-21 15:18 | 37.24191 | -93.38813 | 1277 ft | 12 kts | 211° |
| 2026-04-21 15:18 | 37.24121 | -93.38875 | 1277 ft | 13 kts | 229° |
| 2026-04-21 15:18 | 37.24095 | -93.38981 | 1275 ft | 14 kts | 267° |
| 2026-04-21 15:18 | 37.24123 | -93.39108 | 1273 ft | 16 kts | 292° |
| 2026-04-21 15:19 | 37.24168 | -93.39248 | 1269 ft | 8 kts | 288° |
| 2026-04-21 15:19 | 37.24169 | -93.39250 | 1269 ft | 0 kts | 288° |
| 2026-04-21 15:19 | 37.24181 | -93.39298 | 1273 ft | 9 kts | 286° |
| 2026-04-21 15:19 | 37.24161 | -93.39376 | 1266 ft | 11 kts | 218° |
| 2026-04-21 15:20 | 37.24093 | -93.39419 | 1269 ft | 12 kts | 202° |
| 2026-04-21 15:20 | 37.24016 | -93.39459 | 1268 ft | 11 kts | 202° |
| 2026-04-21 15:20 | 37.23995 | -93.39528 | 1264 ft | 6 kts | 284° |
| 2026-04-21 15:20 | 37.23996 | -93.39532 | 1264 ft | 1 kts | 283° |
| 2026-04-21 15:21 | 37.23998 | -93.39543 | 1265 ft | 2 kts | 282° |
| 2026-04-21 15:21 | 37.23999 | -93.39550 | 1269 ft | 0 kts | 282° |
| 2026-04-21 15:23 | 37.23999 | -93.39551 | 1265 ft | 0 kts | 282° |